Time,TemperatureF,DewpointF,PressureIn,WindDirection,WindDirectionDegrees,WindSpeedMPH,WindSpeedGustMPH,Humidity,HourlyPrecipIn,Conditions,Clouds,dailyrainin,SolarRadiationWatts/m^2,SoftwareType,DateUTC
2013-09-05 00:08:00,55.8,54.0,30.14,ENE,65,0.0,0.0,94,0.00,,,0.00,0,weatherlink.com 1.10,2013-09-04 22:08:00,
2013-09-05 00:23:00,55.5,54.0,30.14,ENE,65,0.0,0.0,94,0.00,,,0.00,0,weatherlink.com 1.10,2013-09-04 22:23:00,
2013-09-05 00:38:00,55.3,54.0,30.15,ENE,65,0.0,0.0,95,0.00,,,0.00,0,weatherlink.com 1.10,2013-09-04 22:38:00,
2013-09-05 00:53:00,55.0,54.0,30.15,ENE,65,0.0,0.0,95,0.00,,,0.00,0,weatherlink.com 1.10,2013-09-04 22:53:00,
2013-09-05 01:08:00,54.6,53.0,30.15,ENE,65,0.0,0.0,95,0.00,,,0.00,0,weatherlink.com 1.10,2013-09-04 23:08:00,
2013-09-05 01:23:00,54.4,53.0,30.14,ENE,65,0.0,0.0,95,0.00,,,0.00,0,weatherlink.com 1.10,2013-09-04 23:23:00,
2013-09-05 01:38:00,54.1,53.0,30.14,ENE,65,0.0,0.0,95,0.00,,,0.00,0,weatherlink.com 1.10,2013-09-04 23:38:00,
2013-09-05 01:53:00,54.0,53.0,30.14,ENE,65,0.0,0.0,96,0.00,,,0.00,0,weatherlink.com 1.10,2013-09-04 23:53:00,
2013-09-05 02:08:00,53.8,53.0,30.14,ENE,65,0.0,0.0,96,0.00,,,0.00,0,weatherlink.com 1.10,2013-09-05 00:08:00,
2013-09-05 02:23:00,53.7,53.0,30.13,ENE,65,0.0,0.0,96,0.00,,,0.00,0,weatherlink.com 1.10,2013-09-05 00:23:00,
2013-09-05 02:38:00,53.4,52.0,30.13,ENE,65,0.0,0.0,96,0.00,,,0.00,0,weatherlink.com 1.10,2013-09-05 00:38:00,
2013-09-05 02:53:00,53.2,52.0,30.13,ENE,65,0.0,0.0,96,0.00,,,0.00,0,weatherlink.com 1.10,2013-09-05 00:53:00,
2013-09-05 03:08:00,53.1,52.0,30.13,ENE,65,0.0,0.0,96,0.00,,,0.00,0,weatherlink.com 1.10,2013-09-05 01:08:00,
2013-09-05 03:23:00,52.9,52.0,30.13,ENE,65,0.0,0.0,96,0.00,,,0.00,0,weatherlink.com 1.10,2013-09-05 01:23:00,
2013-09-05 03:38:00,52.8,52.0,30.12,ENE,65,0.0,0.0,96,0.00,,,0.00,0,weatherlink.com 1.10,2013-09-05 01:38:00,
2013-09-05 03:53:00,52.7,52.0,30.12,ENE,65,0.0,0.0,96,0.00,,,0.00,0,weatherlink.com 1.10,2013-09-05 01:53:00,
2013-09-05 04:08:00,52.7,52.0,30.12,ENE,65,0.0,0.0,96,0.00,,,0.00,0,weatherlink.com 1.10,2013-09-05 02:08:00,
2013-09-05 04:24:00,52.6,52.0,30.12,ENE,65,0.0,0.0,96,0.00,,,0.00,0,weatherlink.com 1.10,2013-09-05 02:24:00,
2013-09-05 04:39:00,52.2,51.0,30.12,ENE,65,0.0,0.0,96,0.00,,,0.00,0,weatherlink.com 1.10,2013-09-05 02:39:00,
2013-09-05 04:54:00,51.8,51.0,30.12,ENE,65,0.0,0.0,96,0.00,,,0.00,0,weatherlink.com 1.10,2013-09-05 02:54:00,
2013-09-05 05:09:00,51.6,51.0,30.12,ENE,65,0.0,0.0,96,0.00,,,0.00,0,weatherlink.com 1.10,2013-09-05 03:09:00,
2013-09-05 05:24:00,51.7,51.0,30.11,ENE,65,0.0,0.0,96,0.00,,,0.00,0,weatherlink.com 1.10,2013-09-05 03:24:00,
2013-09-05 05:39:00,52.0,51.0,30.11,ENE,65,0.0,0.0,97,0.00,,,0.00,0,weatherlink.com 1.10,2013-09-05 03:39:00,
2013-09-05 05:54:00,52.1,51.0,30.11,ENE,65,0.0,0.0,97,0.00,,,0.00,0,weatherlink.com 1.10,2013-09-05 03:54:00,
2013-09-05 06:09:00,52.1,51.0,30.11,ENE,65,0.0,0.0,97,0.00,,,0.00,0,weatherlink.com 1.10,2013-09-05 04:09:00,
2013-09-05 06:24:00,52.5,52.0,30.11,ENE,65,0.0,0.0,97,0.00,,,0.00,0,weatherlink.com 1.10,2013-09-05 04:24:00,
2013-09-05 06:39:00,52.7,52.0,30.11,ENE,65,0.0,0.0,97,0.00,,,0.00,7,weatherlink.com 1.10,2013-09-05 04:39:00,
2013-09-05 06:54:00,52.8,52.0,30.11,ENE,65,0.0,0.0,97,0.00,,,0.00,14,weatherlink.com 1.10,2013-09-05 04:54:00,
2013-09-05 07:09:00,53.1,52.0,30.11,ENE,65,0.0,0.0,97,0.00,,,0.00,23,weatherlink.com 1.10,2013-09-05 05:09:00,
2013-09-05 07:24:00,53.3,53.0,30.11,ENE,65,0.0,1.0,97,0.00,,,0.00,39,weatherlink.com 1.10,2013-09-05 05:24:00,
2013-09-05 07:39:00,53.8,53.0,30.11,ENE,65,0.0,1.0,98,0.00,,,0.00,70,weatherlink.com 1.10,2013-09-05 05:39:00,
2013-09-05 07:54:00,54.6,54.0,30.11,ENE,65,0.0,0.0,98,0.00,,,0.00,77,weatherlink.com 1.10,2013-09-05 05:54:00,
2013-09-05 08:09:00,55.4,55.0,30.11,ENE,65,0.0,0.0,98,0.00,,,0.00,91,weatherlink.com 1.10,2013-09-05 06:09:00,
2013-09-05 08:24:00,55.9,55.0,30.11,ENE,65,0.0,1.0,98,0.00,,,0.00,98,weatherlink.com 1.10,2013-09-05 06:24:00,
2013-09-05 08:39:00,56.2,56.0,30.11,ENE,65,0.0,0.0,98,0.00,,,0.00,132,weatherlink.com 1.10,2013-09-05 06:39:00,
2013-09-05 08:54:00,56.6,56.0,30.11,SSE,150,0.0,1.0,98,0.00,,,0.00,130,weatherlink.com 1.10,2013-09-05 06:54:00,
2013-09-05 09:09:00,57.2,57.0,30.11,SSE,150,0.0,0.0,98,0.00,,,0.00,132,weatherlink.com 1.10,2013-09-05 07:09:00,
2013-09-05 09:24:00,57.5,57.0,30.11,SSE,150,0.0,0.0,98,0.00,,,0.00,160,weatherlink.com 1.10,2013-09-05 07:24:00,
2013-09-05 09:39:00,58.2,58.0,30.11,SSW,193,1.0,1.0,98,0.00,,,0.00,204,weatherlink.com 1.10,2013-09-05 07:39:00,
2013-09-05 09:54:00,58.6,58.0,30.11,SSW,193,0.0,0.0,98,0.00,,,0.00,209,weatherlink.com 1.10,2013-09-05 07:54:00,
2013-09-05 10:09:00,59.5,59.0,30.11,South,175,0.0,1.0,98,0.00,,,0.00,439,weatherlink.com 1.10,2013-09-05 08:09:00,
2013-09-05 10:24:00,61.4,59.0,30.11,SW,223,0.0,0.0,93,0.00,,,0.00,541,weatherlink.com 1.10,2013-09-05 08:24:00,
2013-09-05 10:39:00,63.2,60.0,30.10,SW,223,0.0,0.0,89,0.00,,,0.00,577,weatherlink.com 1.10,2013-09-05 08:39:00,
2013-09-05 10:54:00,65.7,62.0,30.10,East,86,0.0,0.0,87,0.00,,,0.00,601,weatherlink.com 1.10,2013-09-05 08:54:00,
2013-09-05 11:09:00,68.2,63.0,30.09,ENE,60,0.0,2.0,84,0.00,,,0.00,636,weatherlink.com 1.10,2013-09-05 09:09:00,
2013-09-05 11:25:00,69.6,62.0,30.09,ENE,60,0.0,2.0,77,0.00,,,0.00,661,weatherlink.com 1.10,2013-09-05 09:25:00,
2013-09-05 11:40:00,70.3,64.0,30.09,NE,48,0.0,2.0,80,0.00,,,0.00,675,weatherlink.com 1.10,2013-09-05 09:40:00,
2013-09-05 11:55:00,70.7,63.0,30.08,NE,51,0.0,2.0,77,0.00,,,0.00,693,weatherlink.com 1.10,2013-09-05 09:55:00,
2013-09-05 12:10:00,71.8,63.0,30.08,ENE,60,0.0,3.0,73,0.00,,,0.00,807,weatherlink.com 1.10,2013-09-05 10:10:00,
2013-09-05 12:25:00,71.7,64.0,30.08,NNE,30,0.0,2.0,76,0.00,,,0.00,754,weatherlink.com 1.10,2013-09-05 10:25:00,
2013-09-05 12:40:00,72.3,64.0,30.07,NE,45,0.0,1.0,76,0.00,,,0.00,719,weatherlink.com 1.10,2013-09-05 10:40:00,
2013-09-05 12:55:00,73.8,64.0,30.07,NE,42,0.0,1.0,72,0.00,,,0.00,807,weatherlink.com 1.10,2013-09-05 10:55:00,
2013-09-05 13:10:00,74.6,64.0,30.07,NE,38,0.0,2.0,70,0.00,,,0.00,791,weatherlink.com 1.10,2013-09-05 11:10:00,
2013-09-05 13:25:00,73.9,61.0,30.06,ENE,69,0.0,2.0,65,0.00,,,0.00,722,weatherlink.com 1.10,2013-09-05 11:25:00,
2013-09-05 13:40:00,75.8,63.0,30.06,ENE,67,0.0,3.0,64,0.00,,,0.00,758,weatherlink.com 1.10,2013-09-05 11:40:00,
2013-09-05 13:55:00,75.4,62.0,30.06,East,97,0.0,2.0,64,0.00,,,0.00,744,weatherlink.com 1.10,2013-09-05 11:55:00,
2013-09-05 14:10:00,76.5,62.0,30.05,ENE,60,0.0,4.0,61,0.00,,,0.00,719,weatherlink.com 1.10,2013-09-05 12:10:00,
2013-09-05 14:25:00,76.1,63.0,30.05,East,89,0.0,2.0,64,0.00,,,0.00,749,weatherlink.com 1.10,2013-09-05 12:25:00,
2013-09-05 14:40:00,76.9,62.0,30.05,ENE,67,0.0,3.0,61,0.00,,,0.00,707,weatherlink.com 1.10,2013-09-05 12:40:00,
2013-09-05 14:55:00,76.3,61.0,30.04,ENE,58,0.0,2.0,59,0.00,,,0.00,661,weatherlink.com 1.10,2013-09-05 12:55:00,
2013-09-05 15:10:00,73.6,60.0,30.04,NNE,33,0.0,1.0,63,0.00,,,0.00,134,weatherlink.com 1.10,2013-09-05 13:10:00,
2013-09-05 15:25:00,73.4,61.0,30.04,ENE,69,0.0,2.0,66,0.00,,,0.00,160,weatherlink.com 1.10,2013-09-05 13:25:00,
2013-09-05 15:40:00,77.1,64.0,30.03,ENE,76,0.0,2.0,64,0.00,,,0.00,591,weatherlink.com 1.10,2013-09-05 13:40:00,
2013-09-05 15:55:00,76.3,61.0,30.03,ENE,66,1.0,1.0,60,0.00,,,0.00,578,weatherlink.com 1.10,2013-09-05 13:55:00,
2013-09-05 16:10:00,74.8,61.0,30.03,ESE,107,0.0,3.0,62,0.00,,,0.00,520,weatherlink.com 1.10,2013-09-05 14:10:00,
2013-09-05 16:25:00,75.6,61.0,30.02,NE,42,0.0,2.0,61,0.00,,,0.00,492,weatherlink.com 1.10,2013-09-05 14:25:00,
2013-09-05 16:40:00,76.3,61.0,30.02,NE,36,0.0,3.0,59,0.00,,,0.00,396,weatherlink.com 1.10,2013-09-05 14:40:00,
2013-09-05 16:55:00,75.3,60.0,30.02,NNE,30,0.0,2.0,60,0.00,,,0.00,378,weatherlink.com 1.10,2013-09-05 14:55:00,
2013-09-05 17:10:00,75.5,60.0,30.01,East,82,1.0,3.0,58,0.00,,,0.00,355,weatherlink.com 1.10,2013-09-05 15:10:00,
2013-09-05 17:25:00,75.0,59.0,30.01,ENE,66,0.0,4.0,58,0.00,,,0.00,304,weatherlink.com 1.10,2013-09-05 15:25:00,
2013-09-05 17:40:00,74.9,59.0,30.00,NE,39,0.0,3.0,58,0.00,,,0.00,209,weatherlink.com 1.10,2013-09-05 15:40:00,
2013-09-05 17:55:00,74.0,59.0,30.00,NE,34,0.0,3.0,60,0.00,,,0.00,204,weatherlink.com 1.10,2013-09-05 15:55:00,
2013-09-05 18:10:00,73.3,59.0,30.00,NE,55,1.0,3.0,61,0.00,,,0.00,42,weatherlink.com 1.10,2013-09-05 16:10:00,
2013-09-05 18:25:00,72.4,59.0,30.00,NE,39,1.0,3.0,62,0.00,,,0.00,33,weatherlink.com 1.10,2013-09-05 16:25:00,
2013-09-05 18:40:00,71.6,59.0,30.00,NE,49,1.0,3.0,65,0.00,,,0.00,28,weatherlink.com 1.10,2013-09-05 16:40:00,
2013-09-05 18:55:00,70.7,59.0,30.00,ENE,58,0.0,0.0,66,0.00,,,0.00,21,weatherlink.com 1.10,2013-09-05 16:55:00,
2013-09-05 19:10:00,69.7,58.0,29.99,ENE,58,0.0,0.0,67,0.00,,,0.00,14,weatherlink.com 1.10,2013-09-05 17:10:00,
2013-09-05 19:25:00,68.7,58.0,29.99,NE,54,0.0,0.0,69,0.00,,,0.00,7,weatherlink.com 1.10,2013-09-05 17:25:00,
2013-09-05 19:40:00,67.6,58.0,29.99,NE,54,0.0,0.0,72,0.00,,,0.00,0,weatherlink.com 1.10,2013-09-05 17:40:00,
2013-09-05 19:55:00,66.6,58.0,29.99,NE,54,0.0,0.0,75,0.00,,,0.00,0,weatherlink.com 1.10,2013-09-05 17:55:00,
2013-09-05 20:10:00,65.4,58.0,30.00,NE,54,0.0,0.0,78,0.00,,,0.00,0,weatherlink.com 1.10,2013-09-05 18:10:00,
2013-09-05 20:26:00,64.1,57.0,30.00,NE,54,0.0,0.0,79,0.00,,,0.00,0,weatherlink.com 1.10,2013-09-05 18:26:00,
2013-09-05 20:41:00,63.1,58.0,30.00,NE,54,0.0,0.0,82,0.00,,,0.00,0,weatherlink.com 1.10,2013-09-05 18:41:00,
2013-09-05 20:56:00,62.3,57.0,30.00,NE,54,0.0,0.0,83,0.00,,,0.00,0,weatherlink.com 1.10,2013-09-05 18:56:00,
2013-09-05 21:11:00,61.6,57.0,30.00,NE,54,0.0,0.0,84,0.00,,,0.00,0,weatherlink.com 1.10,2013-09-05 19:11:00,
2013-09-05 21:26:00,60.9,57.0,30.00,NE,54,0.0,0.0,86,0.00,,,0.00,0,weatherlink.com 1.10,2013-09-05 19:26:00,
2013-09-05 21:41:00,60.3,57.0,30.00,NE,54,0.0,0.0,88,0.00,,,0.00,0,weatherlink.com 1.10,2013-09-05 19:41:00,
2013-09-05 21:56:00,59.7,56.0,30.00,NE,54,0.0,0.0,88,0.00,,,0.00,0,weatherlink.com 1.10,2013-09-05 19:56:00,
2013-09-05 22:11:00,59.3,56.0,30.00,NE,54,0.0,0.0,90,0.00,,,0.00,0,weatherlink.com 1.10,2013-09-05 20:11:00,
2013-09-05 22:26:00,59.0,56.0,30.00,NE,54,0.0,0.0,90,0.00,,,0.00,0,weatherlink.com 1.10,2013-09-05 20:26:00,
2013-09-05 22:41:00,58.6,56.0,30.00,NE,54,0.0,0.0,91,0.00,,,0.00,0,weatherlink.com 1.10,2013-09-05 20:41:00,
2013-09-05 22:56:00,58.3,56.0,29.99,NE,54,0.0,0.0,92,0.00,,,0.00,0,weatherlink.com 1.10,2013-09-05 20:56:00,
2013-09-05 23:11:00,58.4,56.0,29.99,NE,36,0.0,0.0,92,0.00,,,0.00,0,weatherlink.com 1.10,2013-09-05 21:11:00,
2013-09-05 23:26:00,58.6,56.0,29.99,NE,40,0.0,0.0,91,0.00,,,0.00,0,weatherlink.com 1.10,2013-09-05 21:26:00,
2013-09-05 23:41:00,58.6,56.0,29.99,NE,40,0.0,0.0,90,0.00,,,0.00,0,weatherlink.com 1.10,2013-09-05 21:41:00,
2013-09-05 23:56:00,58.4,55.0,29.99,NE,40,0.0,0.0,89,0.00,,,0.00,0,weatherlink.com 1.10,2013-09-05 21:56:00,